createdAt,value
2023-10-17T00:01:11.371Z,1017.59
2023-10-17T00:02:56.451Z,1017.65
2023-10-17T00:04:41.425Z,1017.63
2023-10-17T00:06:26.369Z,1017.56
2023-10-17T00:08:11.351Z,1017.65
2023-10-17T00:09:56.392Z,1017.66
2023-10-17T00:11:41.360Z,1017.69
2023-10-17T00:13:26.379Z,1017.65
2023-10-17T00:15:11.447Z,1017.61
2023-10-17T00:16:56.368Z,1017.65
2023-10-17T00:18:41.407Z,1017.58
2023-10-17T00:20:26.372Z,1017.5
2023-10-17T00:22:11.345Z,1017.52
2023-10-17T00:23:56.358Z,1017.43
2023-10-17T00:25:41.390Z,1017.43
2023-10-17T00:27:26.459Z,1017.48
2023-10-17T00:29:11.412Z,1017.35
2023-10-17T00:30:56.389Z,1017.4
2023-10-17T00:32:41.386Z,1017.41
2023-10-17T00:34:26.647Z,1017.45
2023-10-17T00:36:11.370Z,1017.41
2023-10-17T00:37:56.363Z,1017.42
2023-10-17T00:39:41.412Z,1017.54
2023-10-17T00:41:26.380Z,1017.5
2023-10-17T00:43:11.456Z,1017.48
2023-10-17T00:44:56.420Z,1017.42
2023-10-17T00:46:41.403Z,1017.46
2023-10-17T00:48:26.478Z,1017.41
2023-10-17T00:50:11.395Z,1017.32
2023-10-17T00:51:56.425Z,1017.31
2023-10-17T00:53:41.431Z,1017.19
2023-10-17T00:55:26.404Z,1017.26
2023-10-17T00:57:11.480Z,1017.21
2023-10-17T00:58:56.446Z,1017.21
2023-10-17T01:00:41.488Z,1017.18
2023-10-17T01:02:26.492Z,1017.22
2023-10-17T01:04:11.432Z,1017.3
2023-10-17T01:05:56.490Z,1017.33
2023-10-17T01:07:41.419Z,1017.33
2023-10-17T01:09:26.461Z,1017.29
2023-10-17T01:11:11.440Z,1017.35
2023-10-17T01:12:56.422Z,1017.36
2023-10-17T01:14:41.479Z,1017.4
2023-10-17T01:16:26.458Z,1017.33
2023-10-17T01:18:11.468Z,1017.35
2023-10-17T01:19:56.470Z,1017.38
2023-10-17T01:21:41.442Z,1017.34
2023-10-17T01:23:26.437Z,1017.32
2023-10-17T01:25:11.473Z,1017.23
2023-10-17T01:26:56.487Z,1017.24
2023-10-17T01:28:41.472Z,1017.12
2023-10-17T01:30:26.564Z,1017.22
2023-10-17T01:32:11.441Z,1017.14
2023-10-17T01:33:56.495Z,1017.11
2023-10-17T01:35:41.468Z,1017.15
2023-10-17T01:37:26.447Z,1017.11
2023-10-17T01:39:11.501Z,1017.05
2023-10-17T01:40:56.483Z,1017.1
2023-10-17T01:42:41.457Z,1017.09
2023-10-17T01:44:26.690Z,1017.05
2023-10-17T01:46:11.575Z,1017.07
2023-10-17T01:47:56.557Z,1017.14
2023-10-17T01:49:41.505Z,1017.07
2023-10-17T01:51:26.839Z,1017.1
2023-10-17T01:53:11.492Z,1017.08
2023-10-17T01:54:56.492Z,1017.02
2023-10-17T01:56:41.490Z,1017
2023-10-17T01:58:26.482Z,1016.99
2023-10-17T02:00:11.498Z,1017.14
2023-10-17T02:01:56.530Z,1017.06
2023-10-17T02:03:41.510Z,1017.06
2023-10-17T02:05:26.501Z,1017.12
2023-10-17T02:07:11.493Z,1017.12
2023-10-17T02:08:56.525Z,1017.12
2023-10-17T02:10:41.526Z,1017.19
2023-10-17T02:12:26.540Z,1017.13
2023-10-17T02:14:11.509Z,1017.14
2023-10-17T02:15:56.561Z,1017.02
2023-10-17T02:17:41.584Z,1017.04
2023-10-17T02:19:26.550Z,1017.09
2023-10-17T02:21:11.527Z,1017.04
2023-10-17T02:22:56.518Z,1017.11
2023-10-17T02:24:41.518Z,1017.08
2023-10-17T02:26:26.519Z,1017.05
2023-10-17T02:28:11.513Z,1017.04
2023-10-17T02:29:56.523Z,1016.91
2023-10-17T02:31:41.566Z,1017.01
2023-10-17T02:33:26.613Z,1016.97
2023-10-17T02:35:11.581Z,1016.9
2023-10-17T02:36:56.592Z,1017.02
2023-10-17T02:38:41.553Z,1016.96
2023-10-17T02:40:26.523Z,1016.84
2023-10-17T02:42:11.559Z,1016.92
2023-10-17T02:43:56.561Z,1016.84
2023-10-17T02:45:41.626Z,1016.85
2023-10-17T02:47:26.579Z,1016.72
2023-10-17T02:49:11.611Z,1016.78
2023-10-17T02:50:56.572Z,1016.8
2023-10-17T02:52:41.569Z,1016.82
2023-10-17T02:54:26.692Z,1016.82
2023-10-17T02:56:11.578Z,1016.85
2023-10-17T02:57:56.573Z,1016.71
2023-10-17T02:59:41.568Z,1016.72
2023-10-17T03:01:26.578Z,1016.69
2023-10-17T03:03:11.638Z,1016.7
2023-10-17T03:04:56.615Z,1016.72
2023-10-17T03:06:41.585Z,1016.78
2023-10-17T03:08:26.598Z,1016.82
2023-10-17T03:10:11.611Z,1016.74
2023-10-17T03:11:56.666Z,1016.72
2023-10-17T03:13:41.610Z,1016.71
2023-10-17T03:15:26.616Z,1016.69
2023-10-17T03:17:11.622Z,1016.79
2023-10-17T03:18:57.237Z,1016.83
2023-10-17T03:20:41.634Z,1016.87
2023-10-17T03:22:26.590Z,1016.84
2023-10-17T03:24:11.685Z,1016.81
2023-10-17T03:25:56.600Z,1016.71
2023-10-17T03:27:41.572Z,1016.69
2023-10-17T03:29:26.595Z,1016.72
2023-10-17T03:31:11.867Z,1016.6
2023-10-17T03:32:56.626Z,1016.65
2023-10-17T03:34:41.612Z,1016.63
2023-10-17T03:36:26.660Z,1016.66
2023-10-17T03:38:11.603Z,1016.6
2023-10-17T03:39:56.578Z,1016.69
2023-10-17T03:41:41.615Z,1016.75
2023-10-17T03:43:26.599Z,1016.76
2023-10-17T03:45:11.627Z,1016.67
2023-10-17T03:46:56.617Z,1016.69
2023-10-17T03:48:41.636Z,1016.73
2023-10-17T03:50:26.630Z,1016.75
2023-10-17T03:52:11.694Z,1016.74
2023-10-17T03:53:56.625Z,1016.81
2023-10-17T03:55:41.623Z,1016.72
2023-10-17T03:57:26.665Z,1016.8
2023-10-17T03:59:11.627Z,1016.73
2023-10-17T04:00:56.978Z,1016.75
2023-10-17T04:02:41.625Z,1016.75
2023-10-17T04:04:27.867Z,1016.72
2023-10-17T04:06:11.657Z,1016.82
2023-10-17T04:07:56.681Z,1016.87
2023-10-17T04:09:41.681Z,1016.85
2023-10-17T04:11:26.654Z,1016.9
2023-10-17T04:13:11.639Z,1016.92
2023-10-17T04:14:56.638Z,1016.93
2023-10-17T04:16:41.614Z,1016.83
2023-10-17T04:18:26.688Z,1016.84
2023-10-17T04:20:11.641Z,1016.87
2023-10-17T04:22:06.379Z,1016.85
2023-10-17T04:23:41.655Z,1016.91
2023-10-17T04:25:26.647Z,1016.89
2023-10-17T04:27:11.656Z,1016.91
2023-10-17T04:28:56.637Z,1016.94
2023-10-17T04:30:41.751Z,1016.84
2023-10-17T04:32:26.655Z,1016.85
2023-10-17T04:34:11.640Z,1016.88
2023-10-17T04:35:56.680Z,1016.92
2023-10-17T04:37:41.672Z,1016.93
2023-10-17T04:39:26.735Z,1016.84
2023-10-17T04:41:11.700Z,1016.84
2023-10-17T04:42:56.640Z,1016.84
2023-10-17T04:44:41.680Z,1016.82
2023-10-17T04:46:26.823Z,1016.86
2023-10-17T04:48:11.697Z,1016.78
2023-10-17T04:49:56.666Z,1016.88
2023-10-17T04:51:41.747Z,1016.8
2023-10-17T04:53:26.668Z,1016.66
2023-10-17T04:55:11.678Z,1016.66
2023-10-17T04:56:56.733Z,1016.65
2023-10-17T04:58:41.671Z,1016.58
2023-10-17T05:00:26.912Z,1016.65
2023-10-17T05:02:11.713Z,1016.55
2023-10-17T05:03:56.750Z,1016.68
2023-10-17T05:05:41.683Z,1016.6
2023-10-17T05:07:26.734Z,1016.63
2023-10-17T05:09:11.744Z,1016.64
2023-10-17T05:10:56.692Z,1016.65
2023-10-17T05:12:41.760Z,1016.64
2023-10-17T05:14:26.846Z,1016.75
2023-10-17T05:16:11.692Z,1016.68
2023-10-17T05:17:56.778Z,1016.7
2023-10-17T05:19:41.720Z,1016.68
2023-10-17T05:21:29.001Z,1016.66
2023-10-17T05:23:12.047Z,1016.76
2023-10-17T05:24:56.743Z,1016.71
2023-10-17T05:26:41.737Z,1016.69
2023-10-17T05:28:26.726Z,1016.76
2023-10-17T05:30:11.795Z,1016.8
2023-10-17T05:31:56.744Z,1016.79
2023-10-17T05:33:41.733Z,1016.76
2023-10-17T05:35:26.754Z,1016.86
2023-10-17T05:37:11.754Z,1016.82
2023-10-17T05:38:56.773Z,1016.81
2023-10-17T05:40:41.743Z,1016.84
2023-10-17T05:42:26.777Z,1016.84
2023-10-17T05:44:11.781Z,1016.86
2023-10-17T05:45:56.808Z,1016.88
2023-10-17T05:47:41.781Z,1016.82
2023-10-17T05:49:26.773Z,1016.71
2023-10-17T05:51:11.864Z,1016.83
2023-10-17T05:52:56.794Z,1016.81
2023-10-17T05:55:03.393Z,1016.82
2023-10-17T05:56:26.785Z,1016.87
2023-10-17T05:58:11.818Z,1016.81
2023-10-17T05:59:56.774Z,1016.84
2023-10-17T06:01:41.782Z,1016.94
2023-10-17T06:03:26.874Z,1017.05
2023-10-17T06:05:11.827Z,1016.93
2023-10-17T06:06:56.853Z,1016.94
2023-10-17T06:08:41.843Z,1017
2023-10-17T06:10:26.799Z,1017.03
2023-10-17T06:12:11.795Z,1016.99
2023-10-17T06:13:56.859Z,1016.91
2023-10-17T06:15:41.890Z,1017
2023-10-17T06:17:26.800Z,1017.01
2023-10-17T06:19:11.831Z,1017.01
2023-10-17T06:20:56.808Z,1016.88
2023-10-17T06:22:41.804Z,1016.99
2023-10-17T06:24:26.893Z,1016.97
2023-10-17T06:26:11.822Z,1017.05
2023-10-17T06:27:56.841Z,1017.07
2023-10-17T06:29:41.852Z,1017.09
2023-10-17T06:31:26.863Z,1017.07
2023-10-17T06:33:11.942Z,1017.05
2023-10-17T06:34:56.880Z,1017
2023-10-17T06:36:41.910Z,1017.04
2023-10-17T06:38:26.856Z,1016.94
2023-10-17T06:40:11.841Z,1016.97
2023-10-17T06:41:56.853Z,1016.97
2023-10-17T06:43:41.845Z,1017.02
2023-10-17T06:45:26.948Z,1017.06
2023-10-17T06:47:11.860Z,1017.03
2023-10-17T06:48:56.890Z,1016.99
2023-10-17T06:50:41.857Z,1017.04
2023-10-17T06:52:26.855Z,1017.05
2023-10-17T06:54:11.853Z,1017.17
2023-10-17T06:55:56.872Z,1017.17
2023-10-17T06:57:41.868Z,1017.17
2023-10-17T06:59:27.048Z,1017.1
2023-10-17T07:01:12.019Z,1017.08
2023-10-17T07:02:56.893Z,1017.13
2023-10-17T07:04:41.996Z,1017.01
2023-10-17T07:06:27.016Z,1016.99
2023-10-17T07:08:11.895Z,1016.91
2023-10-17T07:09:56.858Z,1016.95
2023-10-17T07:11:41.922Z,1016.92
2023-10-17T07:13:26.910Z,1016.84
2023-10-17T07:15:11.904Z,1016.84
2023-10-17T07:16:56.924Z,1016.96
2023-10-17T07:18:41.976Z,1016.9
2023-10-17T07:20:28.804Z,1017
2023-10-17T07:22:11.913Z,1016.97
2023-10-17T07:23:56.882Z,1017.02
2023-10-17T07:25:41.900Z,1017.04
2023-10-17T07:27:26.925Z,1016.92
2023-10-17T07:29:11.938Z,1016.98
2023-10-17T07:30:56.931Z,1016.9
2023-10-17T07:32:41.960Z,1017.01
2023-10-17T07:34:27.054Z,1016.97
2023-10-17T07:36:11.936Z,1016.95
2023-10-17T07:37:57.113Z,1016.9
2023-10-17T07:39:41.999Z,1016.94
2023-10-17T07:41:26.918Z,1016.86
2023-10-17T07:43:11.911Z,1016.87
2023-10-17T07:44:56.952Z,1016.91
2023-10-17T07:46:41.949Z,1016.92
2023-10-17T07:48:27.116Z,1016.89
2023-10-17T07:50:11.918Z,1016.94
2023-10-17T07:51:56.957Z,1016.89
2023-10-17T07:53:41.953Z,1016.9
2023-10-17T07:55:26.944Z,1017.05
2023-10-17T07:57:11.965Z,1016.84
2023-10-17T07:58:56.921Z,1017.01
2023-10-17T08:00:42.009Z,1016.94
2023-10-17T08:02:26.976Z,1017
2023-10-17T08:04:12.005Z,1016.89
2023-10-17T08:05:56.927Z,1016.96
2023-10-17T08:07:41.938Z,1016.97
2023-10-17T08:09:37.649Z,1016.94
2023-10-17T08:11:11.955Z,1017.05
2023-10-17T08:12:56.934Z,1016.86
2023-10-17T08:14:42.027Z,1016.9
2023-10-17T08:16:27.842Z,1016.93
2023-10-17T08:18:12.071Z,1016.93
2023-10-17T08:19:56.975Z,1016.82
2023-10-17T08:21:42.002Z,1016.81
2023-10-17T08:23:26.996Z,1016.96
2023-10-17T08:25:11.965Z,1016.91
2023-10-17T08:26:56.978Z,1016.94
2023-10-17T08:28:41.982Z,1016.87
2023-10-17T08:30:42.643Z,1016.84
2023-10-17T08:32:12.042Z,1016.85
2023-10-17T08:33:56.956Z,1016.84
2023-10-17T08:35:42.021Z,1016.77
2023-10-17T08:37:26.957Z,1016.84
2023-10-17T08:39:11.993Z,1016.84
2023-10-17T08:40:57.010Z,1016.85
2023-10-17T08:42:42.001Z,1016.86
2023-10-17T08:44:27.229Z,1016.91
2023-10-17T08:46:12.086Z,1016.93
2023-10-17T08:47:57.000Z,1016.93
2023-10-17T08:49:41.962Z,1016.88
2023-10-17T08:51:29.230Z,1016.88
2023-10-17T08:53:11.985Z,1016.84
2023-10-17T08:54:56.991Z,1016.95
2023-10-17T08:56:41.995Z,1016.98
2023-10-17T08:58:26.997Z,1016.82
2023-10-17T09:00:12.048Z,1016.9
2023-10-17T09:01:56.994Z,1016.85
2023-10-17T09:03:42.043Z,1016.9
2023-10-17T09:05:26.998Z,1016.83
2023-10-17T09:07:12.048Z,1016.84
2023-10-17T09:08:57.181Z,1016.79
2023-10-17T09:10:41.979Z,1016.79
2023-10-17T09:12:27.028Z,1016.78
2023-10-17T09:14:12.048Z,1016.81
2023-10-17T09:15:57.007Z,1016.79
2023-10-17T09:17:42.050Z,1016.82
2023-10-17T09:19:27.104Z,1016.73
2023-10-17T09:21:12.082Z,1016.82
2023-10-17T09:22:57.074Z,1016.71
2023-10-17T09:24:42.091Z,1016.85
2023-10-17T09:26:27.044Z,1016.76
2023-10-17T09:28:12.052Z,1016.79
2023-10-17T09:29:57.072Z,1016.83
2023-10-17T09:31:42.121Z,1016.82
2023-10-17T09:33:27.069Z,1016.74
2023-10-17T09:35:12.354Z,1016.72
2023-10-17T09:36:57.156Z,1016.73
2023-10-17T09:38:42.054Z,1016.73
2023-10-17T09:40:27.063Z,1016.65
2023-10-17T09:42:12.088Z,1016.65
2023-10-17T09:43:57.069Z,1016.77
2023-10-17T09:45:42.195Z,1016.66
2023-10-17T09:47:27.092Z,1016.63
2023-10-17T09:49:12.169Z,1016.67
2023-10-17T09:50:57.066Z,1016.67
2023-10-17T09:52:42.061Z,1016.61
2023-10-17T09:54:27.112Z,1016.51
2023-10-17T09:56:12.083Z,1016.58
2023-10-17T09:57:57.070Z,1016.65
2023-10-17T09:59:42.085Z,1016.62
2023-10-17T10:01:29.606Z,1016.7
2023-10-17T10:03:15.313Z,1016.6
2023-10-17T10:04:57.138Z,1016.7
2023-10-17T10:06:42.128Z,1016.71
2023-10-17T10:08:27.074Z,1016.66
2023-10-17T10:10:12.131Z,1016.69
2023-10-17T10:11:57.120Z,1016.78
2023-10-17T10:13:42.077Z,1016.78
2023-10-17T10:15:27.104Z,1016.72
2023-10-17T10:17:12.126Z,1016.85
2023-10-17T10:18:57.083Z,1016.78
2023-10-17T10:20:42.080Z,1016.75
2023-10-17T10:22:27.107Z,1016.87
2023-10-17T10:24:12.111Z,1016.88
2023-10-17T10:25:57.161Z,1016.86
2023-10-17T10:27:42.147Z,1016.76
2023-10-17T10:29:27.293Z,1016.83
2023-10-17T10:31:12.149Z,1016.81
2023-10-17T10:32:57.123Z,1016.69
2023-10-17T10:34:42.149Z,1016.66
2023-10-17T10:36:27.148Z,1016.66
2023-10-17T10:38:12.140Z,1016.72
2023-10-17T10:39:57.134Z,1016.67
2023-10-17T10:41:42.234Z,1016.72
2023-10-17T10:43:27.164Z,1016.52
2023-10-17T10:45:12.211Z,1016.54
2023-10-17T10:46:57.161Z,1016.61
2023-10-17T10:48:42.253Z,1016.6
2023-10-17T10:50:27.142Z,1016.59
2023-10-17T10:52:12.172Z,1016.51
2023-10-17T10:53:57.137Z,1016.58
2023-10-17T10:55:42.156Z,1016.4
2023-10-17T10:57:27.231Z,1016.36
2023-10-17T10:59:12.161Z,1016.4
2023-10-17T11:00:57.154Z,1016.45
2023-10-17T11:02:42.205Z,1016.43
2023-10-17T11:04:27.506Z,1016.36
2023-10-17T11:06:12.206Z,1016.34
2023-10-17T11:07:57.147Z,1016.33
2023-10-17T11:09:42.199Z,1016.32
2023-10-17T11:11:27.215Z,1016.23
2023-10-17T11:13:12.195Z,1016.28
2023-10-17T11:15:04.925Z,1016.22
2023-10-17T11:16:42.193Z,1016.2
2023-10-17T11:18:27.186Z,1016.15
2023-10-17T11:20:12.208Z,1016.17
2023-10-17T11:21:57.261Z,1016.09
2023-10-17T11:23:42.166Z,1016.06
2023-10-17T11:25:27.215Z,1016.18
2023-10-17T11:27:12.226Z,1016.01
2023-10-17T11:28:57.368Z,1016.13
2023-10-17T11:30:42.469Z,1016.05
2023-10-17T11:32:27.263Z,1016.03
2023-10-17T11:34:12.188Z,1015.94
2023-10-17T11:35:57.214Z,1015.93
2023-10-17T11:37:50.602Z,1015.93
2023-10-17T11:39:27.243Z,1015.96
2023-10-17T11:41:12.251Z,1015.87
2023-10-17T11:42:57.186Z,1015.84
2023-10-17T11:44:43.416Z,1015.76
2023-10-17T11:46:27.279Z,1015.79
2023-10-17T11:48:12.213Z,1015.83
2023-10-17T11:49:57.218Z,1015.84
2023-10-17T11:51:42.238Z,1015.78
2023-10-17T11:53:27.230Z,1015.86
2023-10-17T11:55:14.113Z,1015.79
2023-10-17T11:56:57.233Z,1015.75
2023-10-17T11:58:42.275Z,1015.69
2023-10-17T12:00:27.276Z,1015.66
2023-10-17T12:02:12.250Z,1015.59
2023-10-17T12:03:57.313Z,1015.58
2023-10-17T12:05:42.258Z,1015.59
2023-10-17T12:07:27.279Z,1015.57
2023-10-17T12:09:12.242Z,1015.6
2023-10-17T12:10:57.231Z,1015.44
2023-10-17T12:12:42.301Z,1015.51
2023-10-17T12:14:27.440Z,1015.43
2023-10-17T12:16:12.338Z,1015.46
2023-10-17T12:17:57.253Z,1015.37
2023-10-17T12:19:42.248Z,1015.45
2023-10-17T12:21:27.282Z,1015.33
2023-10-17T12:23:12.919Z,1015.35
2023-10-17T12:24:57.359Z,1015.32
2023-10-17T12:26:42.265Z,1015.34
2023-10-17T12:28:27.284Z,1015.27
2023-10-17T12:30:12.321Z,1015.14
2023-10-17T12:31:57.350Z,1015.15
2023-10-17T12:33:42.305Z,1015.26
2023-10-17T12:35:27.310Z,1015.26
2023-10-17T12:37:12.291Z,1015.3
2023-10-17T12:38:57.278Z,1015.31
2023-10-17T12:40:42.308Z,1015.16
2023-10-17T12:42:27.311Z,1015.18
2023-10-17T12:44:12.265Z,1015.04
2023-10-17T12:45:57.391Z,1015.14
2023-10-17T12:47:42.362Z,1015.22
2023-10-17T12:49:27.280Z,1015.12
2023-10-17T12:51:12.338Z,1015.23
2023-10-17T12:52:57.285Z,1015.18
2023-10-17T12:54:42.300Z,1015.18
2023-10-17T12:56:27.332Z,1015.1
2023-10-17T12:58:12.310Z,1015.02
2023-10-17T12:59:57.306Z,1014.98
2023-10-17T13:01:42.392Z,1014.95
2023-10-17T13:03:27.460Z,1015.02
2023-10-17T13:05:12.569Z,1014.94
2023-10-17T13:06:57.373Z,1014.89
2023-10-17T13:08:42.372Z,1014.9
2023-10-17T13:10:27.349Z,1014.96
2023-10-17T13:12:12.307Z,1014.87
2023-10-17T13:13:57.356Z,1014.86
2023-10-17T13:15:42.393Z,1014.87
2023-10-17T13:17:27.323Z,1014.82
2023-10-17T13:19:12.396Z,1014.87
2023-10-17T13:21:06.871Z,1014.86
2023-10-17T13:22:42.332Z,1014.8
2023-10-17T13:24:27.469Z,1014.89
2023-10-17T13:26:12.356Z,1014.67
2023-10-17T13:27:57.377Z,1014.73
2023-10-17T13:29:42.673Z,1014.64
2023-10-17T13:31:29.516Z,1014.65
2023-10-17T13:33:12.366Z,1014.61
2023-10-17T13:34:57.435Z,1014.65
2023-10-17T13:36:42.365Z,1014.59
2023-10-17T13:38:27.386Z,1014.65
2023-10-17T13:40:12.388Z,1014.54
2023-10-17T13:41:57.374Z,1014.55
2023-10-17T13:43:42.454Z,1014.44
2023-10-17T13:45:27.368Z,1014.55
2023-10-17T13:47:12.372Z,1014.5
2023-10-17T13:48:57.519Z,1014.45
2023-10-17T13:50:42.541Z,1014.43
2023-10-17T13:52:27.358Z,1014.32
2023-10-17T13:54:12.422Z,1014.33
2023-10-17T13:55:57.445Z,1014.33
2023-10-17T13:57:42.427Z,1014.31
2023-10-17T13:59:27.530Z,1014.33
2023-10-17T14:01:12.416Z,1014.18
2023-10-17T14:02:57.418Z,1014.22
2023-10-17T14:04:42.404Z,1014.24
2023-10-17T14:06:27.440Z,1014.34
2023-10-17T14:08:12.381Z,1014.13
2023-10-17T14:09:57.436Z,1014.23
2023-10-17T14:11:42.377Z,1014.24
2023-10-17T14:13:27.406Z,1014.15
2023-10-17T14:15:12.424Z,1014.13
2023-10-17T14:16:57.422Z,1014.17
2023-10-17T14:18:42.516Z,1014.13
2023-10-17T14:20:27.424Z,1014.14
2023-10-17T14:22:12.775Z,1014.03
2023-10-17T14:23:57.437Z,1014
2023-10-17T14:25:42.469Z,1014.02
2023-10-17T14:27:27.429Z,1014.05
2023-10-17T14:29:12.405Z,1014.01
2023-10-17T14:30:57.491Z,1013.96
2023-10-17T14:32:42.421Z,1013.94
2023-10-17T14:34:27.442Z,1014.03
2023-10-17T14:36:12.412Z,1013.95
2023-10-17T14:37:57.451Z,1014.04
2023-10-17T14:39:42.459Z,1014.09
2023-10-17T14:41:27.457Z,1014.11
2023-10-17T14:43:12.441Z,1013.92
2023-10-17T14:44:57.484Z,1013.99
2023-10-17T14:46:42.488Z,1013.98
2023-10-17T14:48:27.458Z,1014.09
2023-10-17T14:50:12.473Z,1014.01
2023-10-17T14:51:57.491Z,1013.92
2023-10-17T14:53:50.174Z,1014.07
2023-10-17T14:55:27.480Z,1013.98
2023-10-17T14:57:12.474Z,1014.14
2023-10-17T14:58:57.456Z,1014.06
2023-10-17T15:00:42.504Z,1014.05
2023-10-17T15:02:27.485Z,1014.11
2023-10-17T15:04:12.491Z,1014.04
2023-10-17T15:05:57.519Z,1014
2023-10-17T15:07:42.513Z,1013.92
2023-10-17T15:09:27.740Z,1013.93
2023-10-17T15:11:12.628Z,1013.93
2023-10-17T15:12:57.522Z,1013.95
2023-10-17T15:14:42.496Z,1013.95
2023-10-17T15:16:27.478Z,1013.93
2023-10-17T15:18:12.664Z,1013.82
2023-10-17T15:19:57.477Z,1013.79
2023-10-17T15:21:42.457Z,1013.78
2023-10-17T15:23:27.498Z,1013.74
2023-10-17T15:25:12.572Z,1013.87
2023-10-17T15:26:57.480Z,1013.88
2023-10-17T15:28:42.658Z,1013.81
2023-10-17T15:30:36.563Z,1013.78
2023-10-17T15:32:12.547Z,1013.71
2023-10-17T15:33:57.531Z,1013.75
2023-10-17T15:35:42.468Z,1013.7
2023-10-17T15:37:27.481Z,1013.73
2023-10-17T15:39:12.497Z,1013.77
2023-10-17T15:40:57.524Z,1013.77
2023-10-17T15:42:42.496Z,1013.81
2023-10-17T15:44:27.520Z,1013.84
2023-10-17T15:46:12.534Z,1013.87
2023-10-17T15:47:57.573Z,1013.86
2023-10-17T15:49:42.484Z,1013.86
2023-10-17T15:51:27.566Z,1013.81
2023-10-17T15:53:12.504Z,1013.78
2023-10-17T15:54:57.510Z,1013.77
2023-10-17T15:56:42.517Z,1013.82
2023-10-17T15:58:27.558Z,1013.79
2023-10-17T16:00:12.510Z,1013.72
2023-10-17T16:01:57.523Z,1013.7
2023-10-17T16:03:42.620Z,1013.72
2023-10-17T16:05:27.513Z,1013.66
2023-10-17T16:07:12.576Z,1013.68
2023-10-17T16:08:57.531Z,1013.73
2023-10-17T16:10:42.523Z,1013.7
2023-10-17T16:12:27.632Z,1013.68
2023-10-17T16:14:12.540Z,1013.69
2023-10-17T16:15:57.670Z,1013.69
2023-10-17T16:17:42.543Z,1013.83
2023-10-17T16:19:27.686Z,1013.71
2023-10-17T16:21:12.551Z,1013.84
2023-10-17T16:22:57.558Z,1013.77
2023-10-17T16:24:42.540Z,1013.8
2023-10-17T16:26:27.529Z,1013.86
2023-10-17T16:28:12.587Z,1013.82
2023-10-17T16:29:57.529Z,1013.93
2023-10-17T16:31:42.543Z,1013.9
2023-10-17T16:33:27.557Z,1013.9
2023-10-17T16:35:12.532Z,1013.87
2023-10-17T16:36:57.614Z,1013.92
2023-10-17T16:38:42.564Z,1013.9
2023-10-17T16:40:27.590Z,1013.97
2023-10-17T16:42:12.570Z,1013.94
2023-10-17T16:43:57.585Z,1013.93
2023-10-17T16:45:42.618Z,1014
2023-10-17T16:47:27.629Z,1013.96
2023-10-17T16:49:12.576Z,1013.97
2023-10-17T16:50:57.682Z,1014.09
2023-10-17T16:52:42.578Z,1014.03
2023-10-17T16:54:27.607Z,1014.05
2023-10-17T16:56:12.663Z,1014.09
2023-10-17T16:57:57.615Z,1014.01
2023-10-17T16:59:47.012Z,1014.08
2023-10-17T17:01:27.642Z,1014.12
2023-10-17T17:03:12.617Z,1014.12
2023-10-17T17:04:57.661Z,1014.14
2023-10-17T17:06:42.627Z,1014.14
2023-10-17T17:08:27.589Z,1014.1
2023-10-17T17:10:12.619Z,1014.09
2023-10-17T17:11:57.614Z,1014.13
2023-10-17T17:13:42.619Z,1014.04
2023-10-17T17:15:27.641Z,1014.07
2023-10-17T17:17:12.620Z,1014.03
2023-10-17T17:18:57.700Z,1014.08
2023-10-17T17:20:42.632Z,1014.04
2023-10-17T17:22:27.594Z,1014.16
2023-10-17T17:24:12.657Z,1014.02
2023-10-17T17:25:57.623Z,1014.11
2023-10-17T17:27:42.632Z,1014.01
2023-10-17T17:29:27.891Z,1013.94
2023-10-17T17:31:12.718Z,1013.99
2023-10-17T17:32:57.658Z,1013.98
2023-10-17T17:34:42.651Z,1014.02
2023-10-17T17:36:27.622Z,1014.04
2023-10-17T17:38:12.713Z,1014.02
2023-10-17T17:39:57.669Z,1013.92
2023-10-17T17:41:42.602Z,1013.9
2023-10-17T17:43:27.673Z,1013.99
2023-10-17T17:45:12.629Z,1013.84
2023-10-17T17:46:57.769Z,1013.96
2023-10-17T17:48:42.814Z,1013.91
2023-10-17T17:50:27.699Z,1013.89
2023-10-17T17:52:12.664Z,1013.84
2023-10-17T17:53:57.743Z,1013.81
2023-10-17T17:55:42.725Z,1013.76
2023-10-17T17:57:27.661Z,1013.71
2023-10-17T17:59:12.725Z,1013.77
2023-10-17T18:00:57.727Z,1013.82
2023-10-17T18:02:42.682Z,1013.85
2023-10-17T18:04:31.267Z,1013.87
2023-10-17T18:06:12.797Z,1013.81
2023-10-17T18:07:57.657Z,1013.78
2023-10-17T18:09:42.715Z,1013.81
2023-10-17T18:11:27.692Z,1013.77
2023-10-17T18:13:12.676Z,1013.92
2023-10-17T18:14:57.680Z,1013.73
2023-10-17T18:16:42.782Z,1013.87
2023-10-17T18:18:27.743Z,1013.93
2023-10-17T18:20:12.673Z,1013.84
2023-10-17T18:21:57.760Z,1013.93
2023-10-17T18:23:42.697Z,1013.83
2023-10-17T18:25:27.702Z,1013.86
2023-10-17T18:27:12.682Z,1013.83
2023-10-17T18:28:57.700Z,1013.85
2023-10-17T18:30:42.739Z,1013.82
2023-10-17T18:32:27.710Z,1013.84
2023-10-17T18:34:12.705Z,1013.62
2023-10-17T18:35:57.711Z,1013.66
2023-10-17T18:37:42.710Z,1013.65
2023-10-17T18:39:27.867Z,1013.57
2023-10-17T18:41:12.705Z,1013.56
2023-10-17T18:42:57.746Z,1013.58
2023-10-17T18:44:42.724Z,1013.45
2023-10-17T18:46:27.799Z,1013.5
2023-10-17T18:48:12.764Z,1013.41
2023-10-17T18:49:57.748Z,1013.44
2023-10-17T18:51:42.721Z,1013.46
2023-10-17T18:53:27.761Z,1013.45
2023-10-17T18:55:12.812Z,1013.48
2023-10-17T18:56:57.717Z,1013.47
2023-10-17T18:58:42.767Z,1013.42
2023-10-17T19:00:27.788Z,1013.45
2023-10-17T19:02:12.779Z,1013.43
2023-10-17T19:03:59.750Z,1013.49
2023-10-17T19:05:42.899Z,1013.39
2023-10-17T19:07:27.835Z,1013.59
2023-10-17T19:09:12.780Z,1013.52
2023-10-17T19:10:57.783Z,1013.42
2023-10-17T19:12:51.767Z,1013.55
2023-10-17T19:14:27.755Z,1013.4
2023-10-17T19:16:12.932Z,1013.38
2023-10-17T19:17:57.819Z,1013.3
2023-10-17T19:19:42.780Z,1013.34
2023-10-17T19:21:27.824Z,1013.35
2023-10-17T19:23:12.783Z,1013.26
2023-10-17T19:24:57.779Z,1013.27
2023-10-17T19:26:42.781Z,1013.3
2023-10-17T19:28:27.821Z,1013.27
2023-10-17T19:30:12.794Z,1013.2
2023-10-17T19:31:57.851Z,1013.27
2023-10-17T19:33:42.798Z,1013.21
2023-10-17T19:35:27.784Z,1013.11
2023-10-17T19:37:12.832Z,1013.16
2023-10-17T19:38:57.820Z,1013.23
2023-10-17T19:40:42.800Z,1013.17
2023-10-17T19:42:27.817Z,1013.25
2023-10-17T19:44:12.862Z,1013.3
2023-10-17T19:45:58.029Z,1013.32
2023-10-17T19:47:42.862Z,1013.26
2023-10-17T19:49:27.939Z,1013.29
2023-10-17T19:51:12.804Z,1013.25
2023-10-17T19:52:57.894Z,1013.3
2023-10-17T19:54:42.872Z,1013.24
2023-10-17T19:56:27.874Z,1013.27
2023-10-17T19:58:12.848Z,1013.29
2023-10-17T19:59:57.873Z,1013.26
2023-10-17T20:01:42.836Z,1013.22
2023-10-17T20:03:27.905Z,1013.13
2023-10-17T20:05:13.133Z,1013.11
2023-10-17T20:06:57.872Z,1012.96
2023-10-17T20:08:42.877Z,1013
2023-10-17T20:10:27.929Z,1012.99
2023-10-17T20:12:12.887Z,1013.06
2023-10-17T20:13:57.899Z,1013.02
2023-10-17T20:15:42.933Z,1012.96
2023-10-17T20:17:27.925Z,1012.95
2023-10-17T20:19:12.831Z,1012.91
2023-10-17T20:20:57.919Z,1012.87
2023-10-17T20:22:42.859Z,1012.84
2023-10-17T20:24:27.883Z,1012.86
2023-10-17T20:26:12.870Z,1012.87
2023-10-17T20:27:58.864Z,1012.86
2023-10-17T20:29:42.863Z,1012.89
2023-10-17T20:31:28.545Z,1012.84
2023-10-17T20:33:12.897Z,1012.79
2023-10-17T20:34:57.888Z,1012.83
2023-10-17T20:36:42.957Z,1012.61
2023-10-17T20:38:27.907Z,1012.73
2023-10-17T20:40:13.016Z,1012.82
2023-10-17T20:41:57.954Z,1012.8
2023-10-17T20:43:42.877Z,1012.77
2023-10-17T20:45:27.909Z,1012.81
2023-10-17T20:47:12.926Z,1012.74
2023-10-17T20:48:57.904Z,1012.78
2023-10-17T20:50:42.887Z,1012.7
2023-10-17T20:52:28.240Z,1012.6
2023-10-17T20:54:12.936Z,1012.64
2023-10-17T20:55:57.978Z,1012.55
2023-10-17T20:57:42.926Z,1012.55
2023-10-17T20:59:28.077Z,1012.58
2023-10-17T21:01:12.964Z,1012.62
2023-10-17T21:02:57.960Z,1012.46
2023-10-17T21:04:42.924Z,1012.49
2023-10-17T21:06:27.978Z,1012.56
2023-10-17T21:08:13.278Z,1012.59
2023-10-17T21:09:58.015Z,1012.49
2023-10-17T21:11:43.003Z,1012.54
2023-10-17T21:13:27.920Z,1012.52
2023-10-17T21:15:12.957Z,1012.46